sensor_id;sensor_type;location;lat;lon;timestamp;temperature;humidity
66035;HTU21D;52805;51.074;5.842;2022-12-10T00:01:09;2.03;77.50
66035;HTU21D;52805;51.074;5.842;2022-12-10T00:03:35;2.00;77.56
66035;HTU21D;52805;51.074;5.842;2022-12-10T00:06:03;1.96;77.63
66035;HTU21D;52805;51.074;5.842;2022-12-10T00:08:29;1.93;77.82
66035;HTU21D;52805;51.074;5.842;2022-12-10T00:10:55;1.93;77.89
66035;HTU21D;52805;51.074;5.842;2022-12-10T00:13:22;1.95;77.82
66035;HTU21D;52805;51.074;5.842;2022-12-10T00:15:47;1.96;77.71
66035;HTU21D;52805;51.074;5.842;2022-12-10T00:18:13;1.94;77.66
66035;HTU21D;52805;51.074;5.842;2022-12-10T00:20:39;1.91;77.92
66035;HTU21D;52805;51.074;5.842;2022-12-10T00:23:04;1.88;78.19
66035;HTU21D;52805;51.074;5.842;2022-12-10T00:25:31;1.86;78.35
66035;HTU21D;52805;51.074;5.842;2022-12-10T00:27:57;1.84;78.43
66035;HTU21D;52805;51.074;5.842;2022-12-10T00:30:22;1.84;78.21
66035;HTU21D;52805;51.074;5.842;2022-12-10T00:32:48;1.85;78.00
66035;HTU21D;52805;51.074;5.842;2022-12-10T00:35:14;1.85;77.97
66035;HTU21D;52805;51.074;5.842;2022-12-10T00:37:40;1.85;77.82
66035;HTU21D;52805;51.074;5.842;2022-12-10T00:40:06;1.77;77.92
66035;HTU21D;52805;51.074;5.842;2022-12-10T00:42:32;1.73;78.11
66035;HTU21D;52805;51.074;5.842;2022-12-10T00:44:58;1.71;78.15
66035;HTU21D;52805;51.074;5.842;2022-12-10T00:47:24;1.72;78.02
66035;HTU21D;52805;51.074;5.842;2022-12-10T00:49:50;1.72;77.79
66035;HTU21D;52805;51.074;5.842;2022-12-10T00:52:15;1.71;77.88
66035;HTU21D;52805;51.074;5.842;2022-12-10T00:54:41;1.75;77.82
66035;HTU21D;52805;51.074;5.842;2022-12-10T00:57:07;1.71;77.93
66035;HTU21D;52805;51.074;5.842;2022-12-10T00:59:33;1.70;78.08
66035;HTU21D;52805;51.074;5.842;2022-12-10T01:01:58;1.68;78.05
66035;HTU21D;52805;51.074;5.842;2022-12-10T01:04:24;1.66;78.09
66035;HTU21D;52805;51.074;5.842;2022-12-10T01:06:52;1.63;78.24
66035;HTU21D;52805;51.074;5.842;2022-12-10T01:09:24;1.61;78.08
66035;HTU21D;52805;51.074;5.842;2022-12-10T01:11:54;1.60;77.95
66035;HTU21D;52805;51.074;5.842;2022-12-10T01:14:24;1.56;78.05
66035;HTU21D;52805;51.074;5.842;2022-12-10T01:16:55;1.54;77.93
66035;HTU21D;52805;51.074;5.842;2022-12-10T01:19:21;1.54;77.89
66035;HTU21D;52805;51.074;5.842;2022-12-10T01:21:51;1.54;77.71
66035;HTU21D;52805;51.074;5.842;2022-12-10T01:24:17;1.54;77.57
66035;HTU21D;52805;51.074;5.842;2022-12-10T01:26:43;1.54;77.59
66035;HTU21D;52805;51.074;5.842;2022-12-10T01:29:10;1.58;77.47
66035;HTU21D;52805;51.074;5.842;2022-12-10T01:31:39;1.64;77.44
66035;HTU21D;52805;51.074;5.842;2022-12-10T01:34:09;1.70;77.48
66035;HTU21D;52805;51.074;5.842;2022-12-10T01:36:38;1.77;77.39
66035;HTU21D;52805;51.074;5.842;2022-12-10T01:39:06;1.81;77.40
66035;HTU21D;52805;51.074;5.842;2022-12-10T01:41:42;1.87;77.45
66035;HTU21D;52805;51.074;5.842;2022-12-10T01:46:40;1.98;77.62
66035;HTU21D;52805;51.074;5.842;2022-12-10T01:49:09;2.03;77.65
66035;HTU21D;52805;51.074;5.842;2022-12-10T01:51:38;2.06;77.78
66035;HTU21D;52805;51.074;5.842;2022-12-10T01:54:09;2.09;77.85
66035;HTU21D;52805;51.074;5.842;2022-12-10T01:56:39;2.11;77.89
66035;HTU21D;52805;51.074;5.842;2022-12-10T01:59:06;2.12;77.87
66035;HTU21D;52805;51.074;5.842;2022-12-10T02:01:52;2.16;77.69
66035;HTU21D;52805;51.074;5.842;2022-12-10T02:04:52;2.20;77.61
66035;HTU21D;52805;51.074;5.842;2022-12-10T02:07:25;2.21;77.40
66035;HTU21D;52805;51.074;5.842;2022-12-10T02:10:02;2.19;77.52
66035;HTU21D;52805;51.074;5.842;2022-12-10T02:12:39;2.19;77.72
66035;HTU21D;52805;51.074;5.842;2022-12-10T02:15:17;2.17;77.79
66035;HTU21D;52805;51.074;5.842;2022-12-10T02:17:59;2.20;77.81
66035;HTU21D;52805;51.074;5.842;2022-12-10T02:20:40;2.25;77.72
66035;HTU21D;52805;51.074;5.842;2022-12-10T02:23:12;2.29;77.61
66035;HTU21D;52805;51.074;5.842;2022-12-10T02:25:43;2.32;77.56
66035;HTU21D;52805;51.074;5.842;2022-12-10T02:31:28;2.39;77.74
66035;HTU21D;52805;51.074;5.842;2022-12-10T02:34:00;2.41;77.62
66035;HTU21D;52805;51.074;5.842;2022-12-10T02:36:32;2.43;77.64
66035;HTU21D;52805;51.074;5.842;2022-12-10T02:39:02;2.44;77.66
66035;HTU21D;52805;51.074;5.842;2022-12-10T02:41:36;2.42;77.79
66035;HTU21D;52805;51.074;5.842;2022-12-10T02:44:09;2.39;77.68
66035;HTU21D;52805;51.074;5.842;2022-12-10T02:46:38;2.40;77.53
66035;HTU21D;52805;51.074;5.842;2022-12-10T02:49:08;2.38;77.56
66035;HTU21D;52805;51.074;5.842;2022-12-10T02:51:35;2.37;77.63
66035;HTU21D;52805;51.074;5.842;2022-12-10T02:54:06;2.37;77.60
66035;HTU21D;52805;51.074;5.842;2022-12-10T02:57:00;2.39;77.79
66035;HTU21D;52805;51.074;5.842;2022-12-10T02:59:40;2.40;77.92
66035;HTU21D;52805;51.074;5.842;2022-12-10T03:02:24;2.40;78.05
66035;HTU21D;52805;51.074;5.842;2022-12-10T03:05:05;2.44;78.08
66035;HTU21D;52805;51.074;5.842;2022-12-10T03:07:55;2.47;77.89
66035;HTU21D;52805;51.074;5.842;2022-12-10T03:13:15;2.53;77.76
66035;HTU21D;52805;51.074;5.842;2022-12-10T03:15:43;2.55;77.76
66035;HTU21D;52805;51.074;5.842;2022-12-10T03:18:11;2.55;77.78
66035;HTU21D;52805;51.074;5.842;2022-12-10T03:20:44;2.56;77.79
66035;HTU21D;52805;51.074;5.842;2022-12-10T03:23:15;2.55;77.61
66035;HTU21D;52805;51.074;5.842;2022-12-10T03:25:42;2.52;77.60
66035;HTU21D;52805;51.074;5.842;2022-12-10T03:28:09;2.49;77.65
66035;HTU21D;52805;51.074;5.842;2022-12-10T03:30:37;2.49;77.44
66035;HTU21D;52805;51.074;5.842;2022-12-10T03:33:04;2.45;77.32
66035;HTU21D;52805;51.074;5.842;2022-12-10T03:35:32;2.43;77.14
66035;HTU21D;52805;51.074;5.842;2022-12-10T03:37:58;2.35;77.12
66035;HTU21D;52805;51.074;5.842;2022-12-10T03:40:25;2.34;77.24
66035;HTU21D;52805;51.074;5.842;2022-12-10T03:42:51;2.34;77.13
66035;HTU21D;52805;51.074;5.842;2022-12-10T03:45:17;2.30;77.44
66035;HTU21D;52805;51.074;5.842;2022-12-10T03:47:44;2.31;77.33
66035;HTU21D;52805;51.074;5.842;2022-12-10T03:50:10;2.27;77.39
66035;HTU21D;52805;51.074;5.842;2022-12-10T03:52:36;2.25;77.49
66035;HTU21D;52805;51.074;5.842;2022-12-10T03:55:02;2.26;77.69
66035;HTU21D;52805;51.074;5.842;2022-12-10T03:57:28;2.25;77.67
66035;HTU21D;52805;51.074;5.842;2022-12-10T03:59:54;2.27;77.65
66035;HTU21D;52805;51.074;5.842;2022-12-10T04:02:22;2.23;77.61
66035;HTU21D;52805;51.074;5.842;2022-12-10T04:04:48;2.22;77.76
66035;HTU21D;52805;51.074;5.842;2022-12-10T04:07:16;2.17;77.83
66035;HTU21D;52805;51.074;5.842;2022-12-10T04:09:42;2.14;77.88
66035;HTU21D;52805;51.074;5.842;2022-12-10T04:12:08;2.14;78.18
66035;HTU21D;52805;51.074;5.842;2022-12-10T04:14:35;2.20;77.92
66035;HTU21D;52805;51.074;5.842;2022-12-10T04:17:19;2.16;78.06
66035;HTU21D;52805;51.074;5.842;2022-12-10T04:19:48;2.15;78.14
66035;HTU21D;52805;51.074;5.842;2022-12-10T04:22:13;2.15;78.33
66035;HTU21D;52805;51.074;5.842;2022-12-10T04:24:58;2.15;78.17
66035;HTU21D;52805;51.074;5.842;2022-12-10T04:27:42;2.16;78.21
66035;HTU21D;52805;51.074;5.842;2022-12-10T04:30:10;2.19;78.24
66035;HTU21D;52805;51.074;5.842;2022-12-10T04:32:36;2.17;78.21
66035;HTU21D;52805;51.074;5.842;2022-12-10T04:35:02;2.13;78.40
66035;HTU21D;52805;51.074;5.842;2022-12-10T04:37:28;2.16;78.45
66035;HTU21D;52805;51.074;5.842;2022-12-10T04:39:54;2.19;78.47
66035;HTU21D;52805;51.074;5.842;2022-12-10T04:42:21;2.20;78.56
66035;HTU21D;52805;51.074;5.842;2022-12-10T04:44:48;2.26;78.55
66035;HTU21D;52805;51.074;5.842;2022-12-10T04:47:16;2.25;78.35
66035;HTU21D;52805;51.074;5.842;2022-12-10T04:49:43;2.24;78.34
66035;HTU21D;52805;51.074;5.842;2022-12-10T04:52:12;2.28;78.51
66035;HTU21D;52805;51.074;5.842;2022-12-10T04:54:40;2.29;78.37
66035;HTU21D;52805;51.074;5.842;2022-12-10T04:57:07;2.36;78.32
66035;HTU21D;52805;51.074;5.842;2022-12-10T04:59:33;2.31;78.30
66035;HTU21D;52805;51.074;5.842;2022-12-10T05:02:00;2.34;78.44
66035;HTU21D;52805;51.074;5.842;2022-12-10T05:04:25;2.36;78.41
66035;HTU21D;52805;51.074;5.842;2022-12-10T05:06:51;2.38;78.32
66035;HTU21D;52805;51.074;5.842;2022-12-10T05:09:17;2.37;78.23
66035;HTU21D;52805;51.074;5.842;2022-12-10T05:11:43;2.40;78.08
66035;HTU21D;52805;51.074;5.842;2022-12-10T05:14:15;2.41;78.09
66035;HTU21D;52805;51.074;5.842;2022-12-10T05:16:42;2.42;78.14
66035;HTU21D;52805;51.074;5.842;2022-12-10T05:19:09;2.43;78.17
66035;HTU21D;52805;51.074;5.842;2022-12-10T05:21:35;2.47;78.12
66035;HTU21D;52805;51.074;5.842;2022-12-10T05:24:20;2.47;78.05
66035;HTU21D;52805;51.074;5.842;2022-12-10T05:26:45;2.51;77.96
66035;HTU21D;52805;51.074;5.842;2022-12-10T05:29:13;2.50;78.05
66035;HTU21D;52805;51.074;5.842;2022-12-10T05:31:39;2.50;78.15
66035;HTU21D;52805;51.074;5.842;2022-12-10T05:34:04;2.53;78.15
66035;HTU21D;52805;51.074;5.842;2022-12-10T05:36:31;2.54;78.12
66035;HTU21D;52805;51.074;5.842;2022-12-10T05:38:58;2.53;78.08
66035;HTU21D;52805;51.074;5.842;2022-12-10T05:41:30;2.56;77.98
66035;HTU21D;52805;51.074;5.842;2022-12-10T05:43:57;2.55;77.94
66035;HTU21D;52805;51.074;5.842;2022-12-10T05:46:26;2.55;77.84
66035;HTU21D;52805;51.074;5.842;2022-12-10T05:48:53;2.53;77.82
66035;HTU21D;52805;51.074;5.842;2022-12-10T05:51:23;2.53;77.83
66035;HTU21D;52805;51.074;5.842;2022-12-10T05:53:50;2.52;77.93
66035;HTU21D;52805;51.074;5.842;2022-12-10T05:56:18;2.52;78.05
66035;HTU21D;52805;51.074;5.842;2022-12-10T05:58:46;2.50;78.03
66035;HTU21D;52805;51.074;5.842;2022-12-10T06:01:25;2.51;77.84
66035;HTU21D;52805;51.074;5.842;2022-12-10T06:03:51;2.46;77.94
66035;HTU21D;52805;51.074;5.842;2022-12-10T06:06:27;2.45;77.98
66035;HTU21D;52805;51.074;5.842;2022-12-10T06:08:54;2.45;77.97
66035;HTU21D;52805;51.074;5.842;2022-12-10T06:11:20;2.49;77.95
66035;HTU21D;52805;51.074;5.842;2022-12-10T06:13:46;2.50;78.01
66035;HTU21D;52805;51.074;5.842;2022-12-10T06:16:13;2.55;77.85
66035;HTU21D;52805;51.074;5.842;2022-12-10T06:18:41;2.54;77.66
66035;HTU21D;52805;51.074;5.842;2022-12-10T06:21:10;2.52;77.72
66035;HTU21D;52805;51.074;5.842;2022-12-10T06:23:37;2.52;77.84
66035;HTU21D;52805;51.074;5.842;2022-12-10T06:26:08;2.53;77.98
66035;HTU21D;52805;51.074;5.842;2022-12-10T06:28:35;2.54;78.01
66035;HTU21D;52805;51.074;5.842;2022-12-10T06:31:00;2.57;78.08
66035;HTU21D;52805;51.074;5.842;2022-12-10T06:33:26;2.58;78.04
66035;HTU21D;52805;51.074;5.842;2022-12-10T06:35:53;2.61;78.14
66035;HTU21D;52805;51.074;5.842;2022-12-10T06:38:18;2.57;78.30
66035;HTU21D;52805;51.074;5.842;2022-12-10T06:40:44;2.60;77.87
66035;HTU21D;52805;51.074;5.842;2022-12-10T06:43:10;2.59;77.85
66035;HTU21D;52805;51.074;5.842;2022-12-10T06:45:42;2.59;77.85
66035;HTU21D;52805;51.074;5.842;2022-12-10T06:48:09;2.60;77.82
66035;HTU21D;52805;51.074;5.842;2022-12-10T06:50:35;2.58;77.95
66035;HTU21D;52805;51.074;5.842;2022-12-10T06:53:02;2.59;77.92
66035;HTU21D;52805;51.074;5.842;2022-12-10T06:55:28;2.59;77.85
66035;HTU21D;52805;51.074;5.842;2022-12-10T06:57:54;2.62;77.85
66035;HTU21D;52805;51.074;5.842;2022-12-10T07:00:20;2.65;77.79
66035;HTU21D;52805;51.074;5.842;2022-12-10T07:02:47;2.64;77.72
66035;HTU21D;52805;51.074;5.842;2022-12-10T07:05:13;2.66;77.60
66035;HTU21D;52805;51.074;5.842;2022-12-10T07:07:39;2.62;77.56
66035;HTU21D;52805;51.074;5.842;2022-12-10T07:10:05;2.65;77.56
66035;HTU21D;52805;51.074;5.842;2022-12-10T07:12:31;2.64;77.82
66035;HTU21D;52805;51.074;5.842;2022-12-10T07:14:57;2.69;77.82
66035;HTU21D;52805;51.074;5.842;2022-12-10T07:17:23;2.70;77.50
66035;HTU21D;52805;51.074;5.842;2022-12-10T07:19:49;2.70;77.50
66035;HTU21D;52805;51.074;5.842;2022-12-10T07:22:15;2.69;77.64
66035;HTU21D;52805;51.074;5.842;2022-12-10T07:24:41;2.73;77.52
66035;HTU21D;52805;51.074;5.842;2022-12-10T07:27:07;2.70;77.57
66035;HTU21D;52805;51.074;5.842;2022-12-10T07:29:34;2.69;77.75
66035;HTU21D;52805;51.074;5.842;2022-12-10T07:31:59;2.69;77.90
66035;HTU21D;52805;51.074;5.842;2022-12-10T07:34:25;2.72;77.85
66035;HTU21D;52805;51.074;5.842;2022-12-10T07:36:51;2.76;77.62
66035;HTU21D;52805;51.074;5.842;2022-12-10T07:39:17;2.79;77.49
66035;HTU21D;52805;51.074;5.842;2022-12-10T07:41:50;2.82;77.32
66035;HTU21D;52805;51.074;5.842;2022-12-10T07:44:23;2.75;77.28
66035;HTU21D;52805;51.074;5.842;2022-12-10T07:46:52;2.74;77.36
66035;HTU21D;52805;51.074;5.842;2022-12-10T07:49:18;2.74;77.21
66035;HTU21D;52805;51.074;5.842;2022-12-10T07:51:47;2.73;77.37
66035;HTU21D;52805;51.074;5.842;2022-12-10T07:54:15;2.68;77.31
66035;HTU21D;52805;51.074;5.842;2022-12-10T07:56:41;2.66;77.42
66035;HTU21D;52805;51.074;5.842;2022-12-10T07:59:07;2.61;77.53
66035;HTU21D;52805;51.074;5.842;2022-12-10T08:01:32;2.61;77.66
66035;HTU21D;52805;51.074;5.842;2022-12-10T08:03:58;2.60;77.60
66035;HTU21D;52805;51.074;5.842;2022-12-10T08:06:26;2.58;77.65
66035;HTU21D;52805;51.074;5.842;2022-12-10T08:08:52;2.54;77.65
66035;HTU21D;52805;51.074;5.842;2022-12-10T08:11:20;2.58;77.51
66035;HTU21D;52805;51.074;5.842;2022-12-10T08:13:46;2.60;77.56
66035;HTU21D;52805;51.074;5.842;2022-12-10T08:16:15;2.60;77.66
66035;HTU21D;52805;51.074;5.842;2022-12-10T08:18:42;2.64;77.70
66035;HTU21D;52805;51.074;5.842;2022-12-10T08:21:12;2.67;77.78
66035;HTU21D;52805;51.074;5.842;2022-12-10T08:23:38;2.71;77.53
66035;HTU21D;52805;51.074;5.842;2022-12-10T08:26:12;2.71;77.27
66035;HTU21D;52805;51.074;5.842;2022-12-10T08:28:38;2.65;77.17
66035;HTU21D;52805;51.074;5.842;2022-12-10T08:31:05;2.59;77.34
66035;HTU21D;52805;51.074;5.842;2022-12-10T08:33:33;2.56;77.37
66035;HTU21D;52805;51.074;5.842;2022-12-10T08:36:00;2.57;77.45
66035;HTU21D;52805;51.074;5.842;2022-12-10T08:38:29;2.54;77.52
66035;HTU21D;52805;51.074;5.842;2022-12-10T08:40:56;2.53;77.66
66035;HTU21D;52805;51.074;5.842;2022-12-10T08:43:21;2.54;77.62
66035;HTU21D;52805;51.074;5.842;2022-12-10T08:45:47;2.55;77.47
66035;HTU21D;52805;51.074;5.842;2022-12-10T08:48:13;2.54;77.36
66035;HTU21D;52805;51.074;5.842;2022-12-10T08:50:39;2.55;77.36
66035;HTU21D;52805;51.074;5.842;2022-12-10T08:53:05;2.52;77.36
66035;HTU21D;52805;51.074;5.842;2022-12-10T08:55:30;2.50;77.60
66035;HTU21D;52805;51.074;5.842;2022-12-10T08:57:57;2.52;77.73
66035;HTU21D;52805;51.074;5.842;2022-12-10T09:00:24;2.55;77.77
66035;HTU21D;52805;51.074;5.842;2022-12-10T09:02:50;2.57;77.72
66035;HTU21D;52805;51.074;5.842;2022-12-10T09:05:15;2.56;77.78
66035;HTU21D;52805;51.074;5.842;2022-12-10T09:07:41;2.54;77.94
66035;HTU21D;52805;51.074;5.842;2022-12-10T09:10:09;2.56;78.00
66035;HTU21D;52805;51.074;5.842;2022-12-10T09:12:35;2.55;77.98
66035;HTU21D;52805;51.074;5.842;2022-12-10T09:15:01;2.58;78.01
66035;HTU21D;52805;51.074;5.842;2022-12-10T09:17:27;2.62;78.04
66035;HTU21D;52805;51.074;5.842;2022-12-10T09:19:52;2.70;77.83
66035;HTU21D;52805;51.074;5.842;2022-12-10T09:22:18;2.75;77.72
66035;HTU21D;52805;51.074;5.842;2022-12-10T09:24:44;2.81;77.47
66035;HTU21D;52805;51.074;5.842;2022-12-10T09:27:09;2.86;77.51
66035;HTU21D;52805;51.074;5.842;2022-12-10T09:29:35;2.87;77.38
66035;HTU21D;52805;51.074;5.842;2022-12-10T09:32:01;2.89;77.12
66035;HTU21D;52805;51.074;5.842;2022-12-10T09:34:26;2.85;77.18
66035;HTU21D;52805;51.074;5.842;2022-12-10T09:36:52;2.85;77.09
66035;HTU21D;52805;51.074;5.842;2022-12-10T09:39:17;2.86;77.15
66035;HTU21D;52805;51.074;5.842;2022-12-10T09:44:41;2.97;77.29
66035;HTU21D;52805;51.074;5.842;2022-12-10T09:47:10;2.99;77.13
66035;HTU21D;52805;51.074;5.842;2022-12-10T09:49:58;3.04;76.96
66035;HTU21D;52805;51.074;5.842;2022-12-10T09:52:35;3.05;76.74
66035;HTU21D;52805;51.074;5.842;2022-12-10T09:55:13;3.01;76.88
66035;HTU21D;52805;51.074;5.842;2022-12-10T09:57:44;3.01;76.90
66035;HTU21D;52805;51.074;5.842;2022-12-10T10:00:21;3.12;76.79
66035;HTU21D;52805;51.074;5.842;2022-12-10T10:02:49;3.17;76.67
66035;HTU21D;52805;51.074;5.842;2022-12-10T10:08:03;3.25;76.69
66035;HTU21D;52805;51.074;5.842;2022-12-10T10:10:35;3.30;76.47
66035;HTU21D;52805;51.074;5.842;2022-12-10T10:16:11;3.33;76.49
66035;HTU21D;52805;51.074;5.842;2022-12-10T10:18:42;3.32;76.43
66035;HTU21D;52805;51.074;5.842;2022-12-10T10:21:44;3.30;76.45
66035;HTU21D;52805;51.074;5.842;2022-12-10T10:24:23;3.32;76.42
66035;HTU21D;52805;51.074;5.842;2022-12-10T10:26:57;3.31;76.33
66035;HTU21D;52805;51.074;5.842;2022-12-10T10:29:23;3.33;76.44
66035;HTU21D;52805;51.074;5.842;2022-12-10T10:34:55;3.31;76.57
66035;HTU21D;52805;51.074;5.842;2022-12-10T10:37:27;3.36;76.56
66035;HTU21D;52805;51.074;5.842;2022-12-10T10:39:55;3.40;76.50
66035;HTU21D;52805;51.074;5.842;2022-12-10T10:42:36;3.43;76.30
66035;HTU21D;52805;51.074;5.842;2022-12-10T10:45:50;3.42;76.27
66035;HTU21D;52805;51.074;5.842;2022-12-10T10:48:16;3.38;76.43
66035;HTU21D;52805;51.074;5.842;2022-12-10T10:56:17;3.48;76.47
66035;HTU21D;52805;51.074;5.842;2022-12-10T11:01:50;3.57;76.22
66035;HTU21D;52805;51.074;5.842;2022-12-10T11:05:04;3.58;76.04
66035;HTU21D;52805;51.074;5.842;2022-12-10T11:07:18;3.59;76.19
66035;HTU21D;52805;51.074;5.842;2022-12-10T11:09:44;3.63;76.24
66035;HTU21D;52805;51.074;5.842;2022-12-10T11:14:57;3.58;75.98
66035;HTU21D;52805;51.074;5.842;2022-12-10T11:17:25;3.55;76.06
66035;HTU21D;52805;51.074;5.842;2022-12-10T11:20:16;3.53;76.08
66035;HTU21D;52805;51.074;5.842;2022-12-10T11:22:50;3.55;76.10
66035;HTU21D;52805;51.074;5.842;2022-12-10T11:25:42;3.60;76.01
66035;HTU21D;52805;51.074;5.842;2022-12-10T11:28:47;3.60;75.91
66035;HTU21D;52805;51.074;5.842;2022-12-10T11:31:47;3.62;75.95
66035;HTU21D;52805;51.074;5.842;2022-12-10T11:37:11;3.56;75.96
66035;HTU21D;52805;51.074;5.842;2022-12-10T11:40:02;3.55;75.95
66035;HTU21D;52805;51.074;5.842;2022-12-10T11:42:44;3.50;76.31
66035;HTU21D;52805;51.074;5.842;2022-12-10T11:45:47;3.55;76.34
66035;HTU21D;52805;51.074;5.842;2022-12-10T11:56:56;3.68;75.63
66035;HTU21D;52805;51.074;5.842;2022-12-10T11:59:34;3.65;75.69
66035;HTU21D;52805;51.074;5.842;2022-12-10T12:05:36;3.68;75.60
66035;HTU21D;52805;51.074;5.842;2022-12-10T12:16:22;3.68;75.76
66035;HTU21D;52805;51.074;5.842;2022-12-10T12:19:13;3.63;75.71
66035;HTU21D;52805;51.074;5.842;2022-12-10T12:21:40;3.60;75.62
66035;HTU21D;52805;51.074;5.842;2022-12-10T12:24:12;3.59;75.72
66035;HTU21D;52805;51.074;5.842;2022-12-10T12:26:58;3.60;75.66
66035;HTU21D;52805;51.074;5.842;2022-12-10T12:29:35;3.59;75.55
66035;HTU21D;52805;51.074;5.842;2022-12-10T12:32:08;3.50;75.60
66035;HTU21D;52805;51.074;5.842;2022-12-10T12:34:44;3.44;75.72
66035;HTU21D;52805;51.074;5.842;2022-12-10T12:37:14;3.38;75.73
66035;HTU21D;52805;51.074;5.842;2022-12-10T12:40:00;3.36;75.97
66035;HTU21D;52805;51.074;5.842;2022-12-10T12:42:47;3.38;75.90
66035;HTU21D;52805;51.074;5.842;2022-12-10T12:45:28;3.36;76.05
66035;HTU21D;52805;51.074;5.842;2022-12-10T12:50:45;3.28;76.50
66035;HTU21D;52805;51.074;5.842;2022-12-10T12:53:14;3.30;76.36
66035;HTU21D;52805;51.074;5.842;2022-12-10T12:58:40;3.21;76.70
66035;HTU21D;52805;51.074;5.842;2022-12-10T13:01:35;3.15;76.74
66035;HTU21D;52805;51.074;5.842;2022-12-10T13:04:02;3.15;76.98
66035;HTU21D;52805;51.074;5.842;2022-12-10T13:06:32;3.17;77.03
66035;HTU21D;52805;51.074;5.842;2022-12-10T13:11:41;3.25;76.80
66035;HTU21D;52805;51.074;5.842;2022-12-10T13:16:48;3.20;77.23
66035;HTU21D;52805;51.074;5.842;2022-12-10T13:21:59;3.27;77.26
66035;HTU21D;52805;51.074;5.842;2022-12-10T13:27:32;3.17;77.34
66035;HTU21D;52805;51.074;5.842;2022-12-10T13:30:26;3.18;77.27
66035;HTU21D;52805;51.074;5.842;2022-12-10T13:33:17;3.19;77.34
66035;HTU21D;52805;51.074;5.842;2022-12-10T13:35:57;3.17;77.30
66035;HTU21D;52805;51.074;5.842;2022-12-10T13:38:25;3.19;77.37
66035;HTU21D;52805;51.074;5.842;2022-12-10T13:41:06;3.17;77.24
66035;HTU21D;52805;51.074;5.842;2022-12-10T13:43:58;3.16;77.15
66035;HTU21D;52805;51.074;5.842;2022-12-10T13:47:00;3.14;77.19
66035;HTU21D;52805;51.074;5.842;2022-12-10T13:49:35;3.12;77.35
66035;HTU21D;52805;51.074;5.842;2022-12-10T13:52:17;3.15;77.35
66035;HTU21D;52805;51.074;5.842;2022-12-10T14:03:48;3.17;77.24
66035;HTU21D;52805;51.074;5.842;2022-12-10T14:06:21;3.17;77.48
66035;HTU21D;52805;51.074;5.842;2022-12-10T14:09:00;3.13;77.36
66035;HTU21D;52805;51.074;5.842;2022-12-10T14:11:32;3.10;77.53
66035;HTU21D;52805;51.074;5.842;2022-12-10T14:14:01;3.09;77.60
66035;HTU21D;52805;51.074;5.842;2022-12-10T14:16:31;3.12;77.44
66035;HTU21D;52805;51.074;5.842;2022-12-10T14:19:04;3.08;77.56
66035;HTU21D;52805;51.074;5.842;2022-12-10T14:21:40;3.11;77.63
66035;HTU21D;52805;51.074;5.842;2022-12-10T14:24:43;3.09;77.76
66035;HTU21D;52805;51.074;5.842;2022-12-10T14:27:14;3.09;77.60
66035;HTU21D;52805;51.074;5.842;2022-12-10T14:29:48;3.08;77.78
66035;HTU21D;52805;51.074;5.842;2022-12-10T14:32:18;3.13;77.82
66035;HTU21D;52805;51.074;5.842;2022-12-10T14:34:52;3.14;77.83
66035;HTU21D;52805;51.074;5.842;2022-12-10T14:37:24;3.16;77.74
66035;HTU21D;52805;51.074;5.842;2022-12-10T14:39:51;3.20;77.60
66035;HTU21D;52805;51.074;5.842;2022-12-10T14:42:17;3.18;77.59
66035;HTU21D;52805;51.074;5.842;2022-12-10T14:44:45;3.17;77.58
66035;HTU21D;52805;51.074;5.842;2022-12-10T14:47:14;3.18;77.53
66035;HTU21D;52805;51.074;5.842;2022-12-10T14:49:45;3.25;77.41
66035;HTU21D;52805;51.074;5.842;2022-12-10T14:52:19;3.26;77.49
66035;HTU21D;52805;51.074;5.842;2022-12-10T14:54:46;3.26;77.42
66035;HTU21D;52805;51.074;5.842;2022-12-10T14:57:35;3.18;77.55
66035;HTU21D;52805;51.074;5.842;2022-12-10T15:00:15;3.18;77.68
66035;HTU21D;52805;51.074;5.842;2022-12-10T15:02:46;3.12;77.68
66035;HTU21D;52805;51.074;5.842;2022-12-10T15:05:18;3.03;77.94
66035;HTU21D;52805;51.074;5.842;2022-12-10T15:07:54;3.03;77.96
66035;HTU21D;52805;51.074;5.842;2022-12-10T15:10:25;3.08;78.39
66035;HTU21D;52805;51.074;5.842;2022-12-10T15:12:53;3.06;78.22
66035;HTU21D;52805;51.074;5.842;2022-12-10T15:15:33;3.04;78.14
66035;HTU21D;52805;51.074;5.842;2022-12-10T15:25:58;2.86;78.12
66035;HTU21D;52805;51.074;5.842;2022-12-10T15:28:31;2.82;78.24
66035;HTU21D;52805;51.074;5.842;2022-12-10T15:38:46;2.69;78.45
66035;HTU21D;52805;51.074;5.842;2022-12-10T15:41:41;2.69;78.70
66035;HTU21D;52805;51.074;5.842;2022-12-10T15:49:38;2.58;79.34
66035;HTU21D;52805;51.074;5.842;2022-12-10T15:52:03;2.61;79.54
66035;HTU21D;52805;51.074;5.842;2022-12-10T15:56:55;2.67;79.57
66035;HTU21D;52805;51.074;5.842;2022-12-10T15:59:20;2.67;79.45
66035;HTU21D;52805;51.074;5.842;2022-12-10T16:01:46;2.72;79.36
66035;HTU21D;52805;51.074;5.842;2022-12-10T16:04:12;2.65;79.52
66035;HTU21D;52805;51.074;5.842;2022-12-10T16:06:39;2.64;79.82
66035;HTU21D;52805;51.074;5.842;2022-12-10T16:09:05;2.70;79.79
66035;HTU21D;52805;51.074;5.842;2022-12-10T16:11:31;2.68;79.66
66035;HTU21D;52805;51.074;5.842;2022-12-10T16:13:57;2.66;79.88
66035;HTU21D;52805;51.074;5.842;2022-12-10T16:16:24;2.64;80.11
66035;HTU21D;52805;51.074;5.842;2022-12-10T16:18:50;2.68;80.10
66035;HTU21D;52805;51.074;5.842;2022-12-10T16:21:16;2.70;80.19
66035;HTU21D;52805;51.074;5.842;2022-12-10T16:23:42;2.74;80.07
66035;HTU21D;52805;51.074;5.842;2022-12-10T16:26:19;2.82;79.72
66035;HTU21D;52805;51.074;5.842;2022-12-10T16:28:45;2.78;79.88
66035;HTU21D;52805;51.074;5.842;2022-12-10T16:31:15;2.82;80.01
66035;HTU21D;52805;51.074;5.842;2022-12-10T16:33:41;2.83;80.24
66035;HTU21D;52805;51.074;5.842;2022-12-10T16:36:09;2.84;80.22
66035;HTU21D;52805;51.074;5.842;2022-12-10T16:38:35;2.87;80.11
66035;HTU21D;52805;51.074;5.842;2022-12-10T16:41:01;2.90;80.11
66035;HTU21D;52805;51.074;5.842;2022-12-10T16:43:28;2.93;80.07
66035;HTU21D;52805;51.074;5.842;2022-12-10T16:45:54;2.93;80.01
66035;HTU21D;52805;51.074;5.842;2022-12-10T16:48:21;2.95;79.82
66035;HTU21D;52805;51.074;5.842;2022-12-10T16:50:49;2.96;80.04
66035;HTU21D;52805;51.074;5.842;2022-12-10T16:53:22;2.98;80.04
66035;HTU21D;52805;51.074;5.842;2022-12-10T16:55:49;2.99;80.17
66035;HTU21D;52805;51.074;5.842;2022-12-10T16:58:15;3.05;80.11
66035;HTU21D;52805;51.074;5.842;2022-12-10T17:00:46;3.08;80.05
66035;HTU21D;52805;51.074;5.842;2022-12-10T17:03:17;3.11;79.91
66035;HTU21D;52805;51.074;5.842;2022-12-10T17:05:55;3.11;80.03
66035;HTU21D;52805;51.074;5.842;2022-12-10T17:08:22;3.12;79.97
66035;HTU21D;52805;51.074;5.842;2022-12-10T17:10:49;3.13;79.84
66035;HTU21D;52805;51.074;5.842;2022-12-10T17:13:34;3.11;79.82
66035;HTU21D;52805;51.074;5.842;2022-12-10T17:16:01;3.08;79.87
66035;HTU21D;52805;51.074;5.842;2022-12-10T17:18:27;3.11;79.81
66035;HTU21D;52805;51.074;5.842;2022-12-10T17:20:53;3.09;79.93
66035;HTU21D;52805;51.074;5.842;2022-12-10T17:23:22;3.02;79.88
66035;HTU21D;52805;51.074;5.842;2022-12-10T17:25:49;3.03;79.94
66035;HTU21D;52805;51.074;5.842;2022-12-10T17:28:18;2.96;79.83
66035;HTU21D;52805;51.074;5.842;2022-12-10T17:30:44;2.89;80.09
66035;HTU21D;52805;51.074;5.842;2022-12-10T17:33:19;2.88;80.33
66035;HTU21D;52805;51.074;5.842;2022-12-10T17:35:47;2.87;80.36